Time;durP1;ratioP1;P1;durP2;ratioP2;P2;SDS_P1;SDS_P2;PMS_P1;PMS_P2;Temp;Humidity;BMP_temperature;BMP_pressure;BME280_temperature;BME280_humidity;BME280_pressure;Samples;Min_cycle;Max_cycle;Signal;HPM_P1;HPM_P2
2022/05/24 00:00:21;;;;;;;;;;;;;;;17.07;nan;99377.13;5060687;28;19925;-73
2022/05/24 00:02:46;;;;;;;;;;;;;;;17.07;nan;99377.13;5056929;28;19920;-72
2022/05/24 00:05:11;;;;;;;;;;;;;;;17.10;nan;99385.50;5059400;28;19975;-72
2022/05/24 00:07:37;;;;;;;;;;;;;;;17.09;nan;99383.88;5055284;28;20373;-72
2022/05/24 00:10:03;;;;;;;;;;;;;;;17.13;nan;99373.53;5054421;28;20286;-72
2022/05/24 00:12:29;;;;;;;;;;;;;;;17.15;nan;99374.94;5062427;28;19924;-72
2022/05/24 00:17:38;;;;;;;;;;;;;;;17.10;nan;99371.31;5063008;28;19931;-72
2022/05/24 00:20:04;;;;;;;;;;;;;;;17.13;nan;99379.69;5053142;28;19921;-72
2022/05/24 00:22:29;;;;;;;;;;;;;;;17.15;nan;99376.81;5057060;28;19931;-72
2022/05/24 00:25:00;;;;;;;;;;;;;;;17.17;nan;99388.09;5059112;28;20427;-73
2022/05/24 00:27:26;;;;;;;;;;;;;;;17.18;nan;99387.88;5052954;28;19920;-72
2022/05/24 00:29:51;;;;;;;;;;;;;;;17.19;nan;99386.03;5055942;28;19928;-72
2022/05/24 00:32:16;;;;;;;;;;;;;;;17.20;nan;99384.97;5055779;28;19929;-72
2022/05/24 00:34:41;;;;;;;;;;;;;;;17.23;nan;99381.03;5056692;28;19971;-72
2022/05/24 00:37:08;;;;;;;;;;;;;;;17.22;nan;99374.06;5056067;28;20108;-72
2022/05/24 00:39:33;;;;;;;;;;;;;;;17.20;nan;99367.06;5051091;28;19920;-72
2022/05/24 00:42:05;;;;;;;;;;;;;;;17.17;nan;99367.53;5063856;28;19986;-72
2022/05/24 00:44:33;;;;;;;;;;;;;;;17.18;nan;99371.00;5054528;28;19916;-73
2022/05/24 00:47:10;;;;;;;;;;;;;;;17.17;nan;99380.88;5071997;28;20327;-72
2022/05/24 00:49:39;;;;;;;;;;;;;;;17.15;nan;99382.97;5055142;28;19925;-72
2022/05/24 00:52:08;;;;;;;;;;;;;;;17.16;nan;99381.09;5062954;28;20348;-72
2022/05/24 00:54:33;;;;;;;;;;;;;;;17.15;nan;99380.28;5057845;28;19921;-73
2022/05/24 00:57:03;;;;;;;;;;;;;;;17.15;nan;99376.81;5054316;28;19921;-72
2022/05/24 00:59:31;;;;;;;;;;;;;;;17.16;nan;99378.44;5049906;28;19927;-72
2022/05/24 01:01:56;;;;;;;;;;;;;;;17.19;nan;99383.34;5058179;28;19935;-72
2022/05/24 01:04:22;;;;;;;;;;;;;;;17.19;nan;99370.81;5057031;28;20361;-73
2022/05/24 01:06:48;;;;;;;;;;;;;;;17.19;nan;99373.47;5066934;28;19929;-72
2022/05/24 01:09:16;;;;;;;;;;;;;;;17.19;nan;99367.31;5053409;28;19927;-72
2022/05/24 01:11:44;;;;;;;;;;;;;;;17.19;nan;99367.31;5067606;28;19931;-72
2022/05/24 01:14:12;;;;;;;;;;;;;;;17.19;nan;99372.66;5054623;28;19928;-72
2022/05/24 01:16:37;;;;;;;;;;;;;;;17.20;nan;99371.59;5055037;28;19921;-72
2022/05/24 01:19:05;;;;;;;;;;;;;;;17.22;nan;99382.09;5055202;28;19928;-72
2022/05/24 01:21:31;;;;;;;;;;;;;;;17.21;nan;99378.59;5052265;28;19963;-73
2022/05/24 01:24:05;;;;;;;;;;;;;;;17.24;nan;99375.47;5057508;28;19921;-72
2022/05/24 01:26:46;;;;;;;;;;;;;;;17.25;nan;99376.28;5056433;28;20400;-72
2022/05/24 01:29:11;;;;;;;;;;;;;;;17.26;nan;99369.91;5051237;28;19964;-72
2022/05/24 01:37:10;;;;;;;;;;;;;;;17.12;nan;99370.06;5056411;28;19971;-72
2022/05/24 01:39:35;;;;;;;;;;;;;;;17.11;nan;99364.94;5051419;28;20439;-72
2022/05/24 01:42:01;;;;;;;;;;;;;;;17.08;nan;99362.72;5053476;28;19924;-72
2022/05/24 01:44:32;;;;;;;;;;;;;;;17.07;nan;99358.44;5059051;28;20400;-72
2022/05/24 01:46:58;;;;;;;;;;;;;;;17.05;nan;99357.81;5051387;28;19920;-72
2022/05/24 01:49:25;;;;;;;;;;;;;;;17.04;nan;99351.69;5056918;28;20279;-72
2022/05/24 01:51:57;;;;;;;;;;;;;;;17.03;nan;99351.88;5060984;28;19924;-72
2022/05/24 01:54:22;;;;;;;;;;;;;;;17.00;nan;99350.47;5053928;28;19924;-72
2022/05/24 01:56:51;;;;;;;;;;;;;;;16.97;nan;99357.09;5054178;28;19920;-72
2022/05/24 01:59:18;;;;;;;;;;;;;;;16.95;nan;99359.16;5054035;28;19928;-72
2022/05/24 02:01:54;;;;;;;;;;;;;;;16.90;nan;99353.66;5054996;28;19921;-72
2022/05/24 02:04:20;;;;;;;;;;;;;;;16.90;nan;99355.50;5060626;28;20500;-72
2022/05/24 02:06:57;;;;;;;;;;;;;;;16.85;nan;99350.84;5055524;28;19928;-72
2022/05/24 02:09:22;;;;;;;;;;;;;;;16.84;nan;99345.72;5062896;28;19921;-72
2022/05/24 02:11:47;;;;;;;;;;;;;;;16.83;nan;99357.41;5056266;28;19935;-72
2022/05/24 02:14:18;;;;;;;;;;;;;;;16.81;nan;99346.97;5062968;28;20320;-72
2022/05/24 02:16:49;;;;;;;;;;;;;;;16.80;nan;99340.00;5055401;28;19928;-72
2022/05/24 02:19:15;;;;;;;;;;;;;;;16.77;nan;99333.22;5057396;28;19920;-72
2022/05/24 02:21:43;;;;;;;;;;;;;;;16.74;nan;99322.19;5059772;28;20280;-72
2022/05/24 02:24:22;;;;;;;;;;;;;;;16.67;nan;99321.44;5053535;28;19920;-72
2022/05/24 02:26:48;;;;;;;;;;;;;;;16.60;nan;99316.16;5064118;28;19928;-72
2022/05/24 02:29:13;;;;;;;;;;;;;;;16.60;nan;99310.81;5057128;28;19928;-72
2022/05/24 02:31:38;;;;;;;;;;;;;;;16.59;nan;99319.88;5056876;28;20022;-72
2022/05/24 02:34:03;;;;;;;;;;;;;;;16.60;nan;99316.16;5051475;28;19920;-72
2022/05/24 02:36:29;;;;;;;;;;;;;;;16.60;nan;99310.00;5052254;28;19921;-72
2022/05/24 02:38:54;;;;;;;;;;;;;;;16.57;nan;99316.59;5052822;28;19956;-72
2022/05/24 02:41:28;;;;;;;;;;;;;;;16.58;nan;99312.88;5051198;28;19932;-72
2022/05/24 02:43:54;;;;;;;;;;;;;;;16.61;nan;99311.63;5051611;28;20019;-72
2022/05/24 02:46:20;;;;;;;;;;;;;;;16.60;nan;99302.81;5061065;28;19930;-72
2022/05/24 02:48:45;;;;;;;;;;;;;;;16.59;nan;99301.19;5060292;28;19933;-72
2022/05/24 02:51:11;;;;;;;;;;;;;;;16.56;nan;99299.78;5052938;28;19921;-72
2022/05/24 02:53:37;;;;;;;;;;;;;;;16.54;nan;99301.84;5049841;28;19932;-72
2022/05/24 02:56:03;;;;;;;;;;;;;;;16.55;nan;99300.81;5053497;28;19925;-73
2022/05/24 02:58:29;;;;;;;;;;;;;;;16.51;nan;99306.78;5057048;28;19931;-72
2022/05/24 03:00:54;;;;;;;;;;;;;;;16.49;nan;99309.72;5057101;28;20007;-72
2022/05/24 03:03:19;;;;;;;;;;;;;;;16.49;nan;99306.19;5057545;28;19929;-72
2022/05/24 03:05:44;;;;;;;;;;;;;;;16.45;nan;99308.50;5054521;28;20251;-72
2022/05/24 03:10:53;;;;;;;;;;;;;;;16.39;nan;99311.22;5051225;28;19927;-72
2022/05/24 03:16:09;;;;;;;;;;;;;;;16.31;nan;99315.81;5060598;28;19927;-72
2022/05/24 03:18:35;;;;;;;;;;;;;;;16.29;nan;99322.41;5059884;28;19928;-72
2022/05/24 03:21:00;;;;;;;;;;;;;;;16.26;nan;99325.50;5057974;28;19921;-72
2022/05/24 03:23:25;;;;;;;;;;;;;;;16.23;nan;99318.75;5055823;28;19925;-72
2022/05/24 03:25:50;;;;;;;;;;;;;;;16.18;nan;99318.56;5061661;28;19931;-72
2022/05/24 03:28:18;;;;;;;;;;;;;;;16.17;nan;99322.28;5051659;28;19939;-72
2022/05/24 03:30:44;;;;;;;;;;;;;;;16.13;nan;99319.22;5054944;28;19920;-72
2022/05/24 03:33:09;;;;;;;;;;;;;;;16.16;nan;99319.84;5059417;28;19931;-72
2022/05/24 03:35:35;;;;;;;;;;;;;;;16.16;nan;99320.66;5054181;28;19920;-72
2022/05/24 03:38:00;;;;;;;;;;;;;;;16.10;nan;99319.66;5053105;28;19927;-72
2022/05/24 03:40:25;;;;;;;;;;;;;;;16.08;nan;99324.41;5050741;28;19936;-72
2022/05/24 03:42:52;;;;;;;;;;;;;;;16.04;nan;99319.72;5049150;28;19920;-72
2022/05/24 03:45:17;;;;;;;;;;;;;;;16.04;nan;99325.88;5054894;28;20014;-72
2022/05/24 03:47:42;;;;;;;;;;;;;;;16.01;nan;99323.63;5051477;28;20392;-72
2022/05/24 03:50:08;;;;;;;;;;;;;;;16.00;nan;99326.53;5054345;28;19927;-72
2022/05/24 03:52:33;;;;;;;;;;;;;;;15.98;nan;99334.75;5055025;28;19979;-72
2022/05/24 03:54:58;;;;;;;;;;;;;;;15.97;nan;99329.63;5059382;28;20093;-72
2022/05/24 04:00:08;;;;;;;;;;;;;;;16.02;nan;99321.81;5050105;28;19940;-72
2022/05/24 04:02:33;;;;;;;;;;;;;;;16.00;nan;99318.53;5053528;28;19925;-72
2022/05/24 04:04:58;;;;;;;;;;;;;;;15.98;nan;99326.75;5053318;28;19920;-72
2022/05/24 04:07:23;;;;;;;;;;;;;;;15.99;nan;99330.22;5059491;28;20366;-72
2022/05/24 04:09:48;;;;;;;;;;;;;;;15.98;nan;99324.06;5057848;28;19921;-72
2022/05/24 04:12:14;;;;;;;;;;;;;;;15.97;nan;99327.78;5059452;28;19924;-72
2022/05/24 04:14:39;;;;;;;;;;;;;;;15.97;nan;99341.13;5061086;28;19921;-72
2022/05/24 04:17:04;;;;;;;;;;;;;;;15.93;nan;99346.06;5052637;28;20361;-72
2022/05/24 04:19:29;;;;;;;;;;;;;;;15.95;nan;99340.50;5057388;28;20019;-72
2022/05/24 04:21:55;;;;;;;;;;;;;;;15.96;nan;99346.66;5052738;28;20028;-71
2022/05/24 04:24:20;;;;;;;;;;;;;;;15.99;nan;99341.69;5057158;28;19928;-72
2022/05/24 04:26:46;;;;;;;;;;;;;;;16.05;nan;99340.03;5058655;28;19959;-72
2022/05/24 04:29:12;;;;;;;;;;;;;;;16.09;nan;99346.56;5057895;28;19928;-72
2022/05/24 04:31:37;;;;;;;;;;;;;;;16.17;nan;99356.97;5052947;28;19924;-72
2022/05/24 04:34:03;;;;;;;;;;;;;;;16.25;nan;99356.69;5051401;28;19931;-72
2022/05/24 04:36:28;;;;;;;;;;;;;;;16.30;nan;99369.38;5051994;28;20362;-71
2022/05/24 04:38:53;;;;;;;;;;;;;;;16.36;nan;99371.19;5053517;28;19921;-72
2022/05/24 04:44:02;;;;;;;;;;;;;;;16.42;nan;99373.00;5054530;28;19999;-73
2022/05/24 04:47:07;;;;;;;;;;;;;;;16.46;nan;99378.69;5052513;28;19924;-72
2022/05/24 04:49:12;;;;;;;;;;;;;;;16.60;nan;99371.38;5057008;28;19924;-72
2022/05/24 04:51:37;;;;;;;;;;;;;;;16.65;nan;99368.88;5051739;28;19932;-72
2022/05/24 04:54:03;;;;;;;;;;;;;;;16.70;nan;99369.03;5051987;28;19921;-72
2022/05/24 04:56:28;;;;;;;;;;;;;;;16.74;nan;99370.22;5051357;28;19921;-72
2022/05/24 04:58:53;;;;;;;;;;;;;;;16.75;nan;99371.84;5050714;28;19921;-72
2022/05/24 05:01:18;;;;;;;;;;;;;;;16.80;nan;99368.56;5051892;28;20016;-72
2022/05/24 05:03:43;;;;;;;;;;;;;;;16.83;nan;99362.75;5053979;28;19928;-72
2022/05/24 05:06:10;;;;;;;;;;;;;;;16.84;nan;99367.88;5051770;28;19921;-72
2022/05/24 05:08:35;;;;;;;;;;;;;;;16.87;nan;99370.09;5058655;28;19924;-72
2022/05/24 05:11:01;;;;;;;;;;;;;;;16.98;nan;99371.25;5052543;28;19928;-72
2022/05/24 05:13:27;;;;;;;;;;;;;;;17.12;nan;99377.25;5053741;28;19936;-72
2022/05/24 05:15:52;;;;;;;;;;;;;;;17.29;nan;99380.97;5060763;28;19921;-72
2022/05/24 05:18:18;;;;;;;;;;;;;;;17.45;nan;99384.88;5054175;28;19974;-72
2022/05/24 05:20:44;;;;;;;;;;;;;;;17.57;nan;99390.28;5049521;28;19980;-72
2022/05/24 05:23:11;;;;;;;;;;;;;;;17.59;nan;99389.03;5056673;28;19921;-72
2022/05/24 05:25:36;;;;;;;;;;;;;;;17.50;nan;99385.03;5050286;28;19936;-72
2022/05/24 05:28:02;;;;;;;;;;;;;;;17.39;nan;99385.78;5051073;28;19920;-72
2022/05/24 05:33:12;;;;;;;;;;;;;;;17.26;nan;99399.31;5059024;28;19931;-72
2022/05/24 05:35:38;;;;;;;;;;;;;;;17.21;nan;99410.66;5051320;28;19946;-72
2022/05/24 05:38:03;;;;;;;;;;;;;;;17.13;nan;99406.41;5051779;28;20495;-72
2022/05/24 05:40:28;;;;;;;;;;;;;;;17.17;nan;99412.13;5054652;28;19929;-72
2022/05/24 05:42:53;;;;;;;;;;;;;;;17.18;nan;99414.59;5049596;28;19935;-71
2022/05/24 05:45:18;;;;;;;;;;;;;;;17.17;nan;99418.28;5051954;28;19974;-72
2022/05/24 05:47:44;;;;;;;;;;;;;;;17.15;nan;99424.88;5050817;28;20015;-72
2022/05/24 05:50:09;;;;;;;;;;;;;;;17.16;nan;99422.00;5049146;28;19917;-72
2022/05/24 05:52:34;;;;;;;;;;;;;;;17.12;nan;99444.03;5051316;28;19935;-72
2022/05/24 05:55:00;;;;;;;;;;;;;;;16.81;nan;99450.28;5051772;28;20028;-71
2022/05/24 05:57:25;;;;;;;;;;;;;;;16.45;nan;99441.09;5049759;28;19929;-71
2022/05/24 05:59:51;;;;;;;;;;;;;;;16.20;nan;99457.06;5055010;28;19920;-72
2022/05/24 06:02:16;;;;;;;;;;;;;;;16.18;nan;99459.13;5050727;28;20090;-72
2022/05/24 06:04:41;;;;;;;;;;;;;;;16.34;nan;99461.28;5051189;28;20357;-71
2022/05/24 06:07:08;;;;;;;;;;;;;;;16.62;nan;99460.06;5049784;28;19925;-72
2022/05/24 06:09:33;;;;;;;;;;;;;;;16.89;nan;99456.16;5049817;28;19943;-72
2022/05/24 06:11:59;;;;;;;;;;;;;;;17.07;nan;99465.25;5049766;28;20420;-73
2022/05/24 06:14:24;;;;;;;;;;;;;;;17.25;nan;99472.47;5048931;28;19996;-73
2022/05/24 06:16:49;;;;;;;;;;;;;;;17.40;nan;99492.44;5049109;28;20046;-73
2022/05/24 06:19:15;;;;;;;;;;;;;;;17.45;nan;99488.28;5047252;28;19921;-72
2022/05/24 06:21:40;;;;;;;;;;;;;;;17.49;nan;99495.63;5049173;28;19921;-73
2022/05/24 06:24:06;;;;;;;;;;;;;;;17.44;nan;99500.03;5053456;28;19925;-72
2022/05/24 06:26:32;;;;;;;;;;;;;;;17.40;nan;99515.69;5046943;28;19920;-73
2022/05/24 06:28:57;;;;;;;;;;;;;;;17.26;nan;99512.31;5050484;28;19951;-72
2022/05/24 06:31:23;;;;;;;;;;;;;;;17.29;nan;99514.56;5049024;28;20014;-72
2022/05/24 06:33:48;;;;;;;;;;;;;;;17.30;nan;99526.06;5050027;28;19925;-72
2022/05/24 06:36:13;;;;;;;;;;;;;;;17.30;nan;99531.41;5046965;28;20392;-72
2022/05/24 06:38:39;;;;;;;;;;;;;;;17.38;nan;99537.28;5052007;28;19925;-72
2022/05/24 06:41:04;;;;;;;;;;;;;;;17.42;nan;99548.34;5054801;28;19920;-73
2022/05/24 06:43:30;;;;;;;;;;;;;;;17.47;nan;99550.34;5049043;28;19924;-72
2022/05/24 06:45:55;;;;;;;;;;;;;;;17.41;nan;99566.22;5049856;28;20405;-72
2022/05/24 06:48:20;;;;;;;;;;;;;;;17.45;nan;99576.47;5049318;28;20365;-72
2022/05/24 06:50:45;;;;;;;;;;;;;;;17.45;nan;99574.63;5046632;28;19931;-72
2022/05/24 06:53:11;;;;;;;;;;;;;;;17.51;nan;99576.41;5047115;28;20298;-73
2022/05/24 06:55:37;;;;;;;;;;;;;;;17.66;nan;99565.34;5047804;28;19963;-72
2022/05/24 06:58:02;;;;;;;;;;;;;;;17.70;nan;99581.78;5048569;28;19921;-72
2022/05/24 07:03:13;;;;;;;;;;;;;;;17.80;nan;99571.38;5044800;28;19932;-73
2022/05/24 07:05:38;;;;;;;;;;;;;;;17.90;nan;99569.06;5048087;28;19921;-72
2022/05/24 07:08:04;;;;;;;;;;;;;;;18.04;nan;99573.22;5058409;28;20337;-72
2022/05/24 07:10:30;;;;;;;;;;;;;;;18.11;nan;99583.00;5047262;28;19940;-72
2022/05/24 07:13:06;;;;;;;;;;;;;;;18.06;nan;99590.91;5044981;28;19978;-72
2022/05/24 07:15:31;;;;;;;;;;;;;;;17.66;nan;99602.78;5049096;28;19948;-72
2022/05/24 07:17:57;;;;;;;;;;;;;;;17.03;nan;99603.75;5048310;28;19920;-73
2022/05/24 07:20:23;;;;;;;;;;;;;;;16.70;nan;99606.59;5048686;28;19928;-73
2022/05/24 07:22:48;;;;;;;;;;;;;;;16.40;nan;99607.19;5051308;28;19921;-73
2022/05/24 07:25:14;;;;;;;;;;;;;;;16.14;nan;99622.25;5055897;28;19928;-74
2022/05/24 07:27:40;;;;;;;;;;;;;;;16.08;nan;99636.41;5052367;28;20083;-74
2022/05/24 07:30:05;;;;;;;;;;;;;;;16.01;nan;99648.13;5054339;28;20063;-74
2022/05/24 07:32:31;;;;;;;;;;;;;;;15.90;nan;99654.94;5055943;28;20638;-74
2022/05/24 07:34:59;;;;;;;;;;;;;;;15.90;nan;99650.41;5053266;28;19927;-74
2022/05/24 07:37:24;;;;;;;;;;;;;;;16.18;nan;99648.50;5050552;28;19974;-74
2022/05/24 07:45:47;;;;;;;;;;;;;;;16.29;nan;99651.34;5051489;28;20007;-74
2022/05/24 07:48:02;;;;;;;;;;;;;;;16.79;nan;99661.41;5057621;28;19927;-74
2022/05/24 07:50:27;;;;;;;;;;;;;;;16.70;nan;99660.81;5058460;28;19921;-74
2022/05/24 07:52:52;;;;;;;;;;;;;;;16.75;nan;99660.97;5057077;28;19977;-74
2022/05/24 07:55:18;;;;;;;;;;;;;;;16.80;nan;99656.88;5051464;28;19959;-74
2022/05/24 07:57:43;;;;;;;;;;;;;;;16.99;nan;99658.63;5053996;28;19925;-74
2022/05/24 08:00:08;;;;;;;;;;;;;;;17.38;nan;99657.53;5050405;28;19978;-74
2022/05/24 08:02:34;;;;;;;;;;;;;;;18.46;nan;99658.16;5050111;28;19925;-74
2022/05/24 08:05:00;;;;;;;;;;;;;;;19.48;nan;99660.03;5055772;28;19974;-74
2022/05/24 08:07:25;;;;;;;;;;;;;;;20.47;nan;99667.31;5050227;28;20370;-74
2022/05/24 08:09:50;;;;;;;;;;;;;;;21.01;nan;99665.16;5052675;28;19921;-74
2022/05/24 08:12:15;;;;;;;;;;;;;;;20.90;nan;99664.16;5053876;28;19924;-74
2022/05/24 08:14:40;;;;;;;;;;;;;;;20.64;nan;99659.34;5053981;28;19928;-74
2022/05/24 08:17:06;;;;;;;;;;;;;;;20.15;nan;99652.44;5049869;28;19932;-73
2022/05/24 08:19:31;;;;;;;;;;;;;;;19.58;nan;99657.59;5051184;28;20353;-73
2022/05/24 08:21:58;;;;;;;;;;;;;;;19.41;nan;99667.38;5052867;28;19927;-74
2022/05/24 08:24:23;;;;;;;;;;;;;;;20.25;nan;99680.56;5053579;28;19959;-74
2022/05/24 08:26:48;;;;;;;;;;;;;;;20.42;nan;99683.34;5051415;28;19960;-74
2022/05/24 08:29:14;;;;;;;;;;;;;;;20.73;nan;99684.78;5050689;28;20293;-74
2022/05/24 08:31:39;;;;;;;;;;;;;;;21.17;nan;99529.16;5049615;28;19921;-74
2022/05/24 08:34:04;;;;;;;;;;;;;;;20.95;nan;99542.50;5059702;28;20141;-73
2022/05/24 08:36:30;;;;;;;;;;;;;;;20.79;nan;99544.13;5067819;28;19916;-73
2022/05/24 08:38:55;;;;;;;;;;;;;;;20.68;nan;99536.94;5055382;28;19924;-73
2022/05/24 08:41:26;;;;;;;;;;;;;;;20.72;nan;99555.03;5052459;28;20327;-73
2022/05/24 08:48:22;;;;;;;;;;;;;;;20.90;nan;99534.34;5061861;28;19927;-73
2022/05/24 08:49:30;;;;;;;;;;;;;;;22.59;nan;99692.88;5051831;28;19971;-73
2022/05/24 08:51:58;;;;;;;;;;;;;;;22.97;nan;99683.03;5068496;28;20405;-74
2022/05/24 08:54:44;;;;;;;;;;;;;;;23.05;nan;99696.91;5057549;28;19924;-73
2022/05/24 08:57:25;;;;;;;;;;;;;;;24.48;nan;99708.00;5062385;28;19996;-73
2022/05/24 08:59:50;;;;;;;;;;;;;;;23.98;nan;99706.63;5052998;28;19921;-73
2022/05/24 09:02:16;;;;;;;;;;;;;;;23.48;nan;99695.16;5053087;28;19925;-73
2022/05/24 09:04:41;;;;;;;;;;;;;;;22.71;nan;99698.94;5058909;28;19927;-73
2022/05/24 09:07:22;;;;;;;;;;;;;;;22.55;nan;99683.66;5057563;28;19920;-73
2022/05/24 09:09:53;;;;;;;;;;;;;;;23.21;nan;99695.16;5052418;28;20398;-73
2022/05/24 09:12:31;;;;;;;;;;;;;;;22.80;nan;99697.41;5055068;28;19928;-73
2022/05/24 09:14:59;;;;;;;;;;;;;;;22.00;nan;99699.63;5058924;28;20011;-73
2022/05/24 09:17:27;;;;;;;;;;;;;;;21.42;nan;99701.66;5071022;28;19916;-73
2022/05/24 09:19:53;;;;;;;;;;;;;;;20.90;nan;99723.28;5069936;28;20339;-73
2022/05/24 09:22:22;;;;;;;;;;;;;;;20.45;nan;99729.34;5065812;28;20038;-73
2022/05/24 09:24:56;;;;;;;;;;;;;;;20.89;nan;99726.22;5056571;28;19925;-73
2022/05/24 09:27:26;;;;;;;;;;;;;;;23.03;nan;99734.09;5055249;28;19921;-73
2022/05/24 09:29:59;;;;;;;;;;;;;;;22.72;nan;99737.50;5062916;28;20427;-73
2022/05/24 09:32:31;;;;;;;;;;;;;;;22.52;nan;99746.13;5057261;28;19924;-73
2022/05/24 09:35:05;;;;;;;;;;;;;;;21.82;nan;99735.69;5061247;28;20360;-73
2022/05/24 09:37:31;;;;;;;;;;;;;;;23.24;nan;99739.69;5053751;28;19920;-73
2022/05/24 09:39:58;;;;;;;;;;;;;;;24.90;nan;99749.50;5060148;28;20408;-73
2022/05/24 09:42:27;;;;;;;;;;;;;;;25.57;nan;99745.06;5060401;28;19931;-73
2022/05/24 09:45:01;;;;;;;;;;;;;;;26.48;nan;99737.88;5061076;28;19925;-73
2022/05/24 09:47:26;;;;;;;;;;;;;;;27.74;nan;99742.09;5058858;28;19924;-74
2022/05/24 09:49:52;;;;;;;;;;;;;;;28.29;nan;99744.56;5061892;28;19936;-74
2022/05/24 09:52:17;;;;;;;;;;;;;;;28.79;nan;99753.25;5065098;28;20297;-74
2022/05/24 09:54:53;;;;;;;;;;;;;;;28.98;nan;99762.28;5055821;28;19929;-74
2022/05/24 09:57:23;;;;;;;;;;;;;;;29.35;nan;99763.41;5056432;28;19927;-73
2022/05/24 10:00:07;;;;;;;;;;;;;;;30.21;nan;99762.25;5053715;28;19929;-74
2022/05/24 10:02:34;;;;;;;;;;;;;;;30.47;nan;99768.06;5049751;28;19925;-74
2022/05/24 10:05:02;;;;;;;;;;;;;;;30.66;nan;99760.59;5061258;28;19952;-74
2022/05/24 10:07:29;;;;;;;;;;;;;;;31.23;nan;99768.41;5057242;28;20371;-74
2022/05/24 10:10:02;;;;;;;;;;;;;;;31.81;nan;99769.47;5056854;28;19920;-74
2022/05/24 10:12:42;;;;;;;;;;;;;;;32.48;nan;99765.81;5059058;28;19978;-74
2022/05/24 10:15:17;;;;;;;;;;;;;;;32.02;nan;99764.34;5053595;28;19927;-73
2022/05/24 10:17:51;;;;;;;;;;;;;;;32.15;nan;99752.50;5048457;28;19929;-73
2022/05/24 10:20:16;;;;;;;;;;;;;;;32.72;nan;99765.41;5060002;28;19931;-73
2022/05/24 10:22:53;;;;;;;;;;;;;;;33.27;nan;99764.06;5055766;28;19920;-74
2022/05/24 10:25:26;;;;;;;;;;;;;;;33.59;nan;99756.50;5065915;28;20015;-74
2022/05/24 10:28:10;;;;;;;;;;;;;;;34.07;nan;99769.13;5068938;28;19948;-74
2022/05/24 10:30:35;;;;;;;;;;;;;;;32.34;nan;99760.44;5060206;28;19927;-74
2022/05/24 10:38:58;;;;;;;;;;;;;;;32.62;nan;99756.72;5053379;28;19970;-74
2022/05/24 10:41:32;;;;;;;;;;;;;;;32.97;nan;99769.34;5064728;28;19943;-73
2022/05/24 10:44:03;;;;;;;;;;;;;;;33.04;nan;99763.44;5046177;28;20204;-73
2022/05/24 10:46:34;;;;;;;;;;;;;;;33.00;nan;99754.19;5038637;28;19921;-74
2022/05/24 10:48:59;;;;;;;;;;;;;;;33.67;nan;99757.63;5052550;28;19924;-74
2022/05/24 10:51:28;;;;;;;;;;;;;;;34.69;nan;99765.03;5057375;28;20305;-73
2022/05/24 10:53:58;;;;;;;;;;;;;;;34.75;nan;99757.41;5059832;28;20000;-74
2022/05/24 10:56:28;;;;;;;;;;;;;;;35.30;nan;99742.63;5050678;28;19925;-74
2022/05/24 10:58:56;;;;;;;;;;;;;;;35.36;nan;99771.53;5050671;28;20125;-74
2022/05/24 11:01:24;;;;;;;;;;;;;;;34.52;nan;99762.38;5059033;28;20023;-75
2022/05/24 11:03:53;;;;;;;;;;;;;;;34.81;nan;99762.38;5048262;28;19938;-73
2022/05/24 11:06:25;;;;;;;;;;;;;;;34.76;nan;99770.81;5048580;28;19986;-74
2022/05/24 11:09:00;;;;;;;;;;;;;;;33.94;nan;99754.47;5050795;28;19932;-73
2022/05/24 11:11:44;;;;;;;;;;;;;;;34.43;nan;99754.97;5048293;28;19920;-74
2022/05/24 11:14:25;;;;;;;;;;;;;;;34.62;nan;99760.06;5049864;28;19956;-73
2022/05/24 11:16:51;;;;;;;;;;;;;;;34.20;nan;99759.09;5053094;28;19920;-73
2022/05/24 11:19:27;;;;;;;;;;;;;;;34.49;nan;99750.06;5049473;28;19924;-73
2022/05/24 11:22:05;;;;;;;;;;;;;;;35.49;nan;99747.63;5046810;28;20377;-73
2022/05/24 11:24:42;;;;;;;;;;;;;;;36.39;nan;99753.47;5049126;28;19921;-74
2022/05/24 11:27:11;;;;;;;;;;;;;;;36.79;nan;99756.34;5057214;28;19948;-74
2022/05/24 11:29:43;;;;;;;;;;;;;;;36.77;nan;99747.59;5049726;28;19920;-73
2022/05/24 11:32:08;;;;;;;;;;;;;;;36.49;nan;99742.78;5048324;28;19974;-74
2022/05/24 11:34:35;;;;;;;;;;;;;;;35.60;nan;99740.59;5045015;28;20357;-74
2022/05/24 11:37:02;;;;;;;;;;;;;;;35.72;nan;99737.88;5044120;28;19925;-74
2022/05/24 11:39:33;;;;;;;;;;;;;;;35.94;nan;99746.84;5044044;28;20265;-74
2022/05/24 11:42:19;;;;;;;;;;;;;;;36.80;nan;99744.16;5060150;28;19925;-74
2022/05/24 11:44:45;;;;;;;;;;;;;;;37.76;nan;99735.09;5041958;28;19931;-73
2022/05/24 11:47:30;;;;;;;;;;;;;;;37.55;nan;99745.56;5052667;28;20019;-74
2022/05/24 11:49:57;;;;;;;;;;;;;;;34.14;nan;99739.28;5042464;28;19931;-74
2022/05/24 11:52:43;;;;;;;;;;;;;;;31.67;nan;99744.94;5046568;28;19925;-73
2022/05/24 11:55:08;;;;;;;;;;;;;;;30.41;nan;99737.34;5050444;28;20142;-73
2022/05/24 11:57:42;;;;;;;;;;;;;;;29.63;nan;99739.81;5053529;28;19921;-73
2022/05/24 12:00:09;;;;;;;;;;;;;;;30.22;nan;99739.31;5047776;28;20019;-73
2022/05/24 12:07:54;;;;;;;;;;;;;;;30.54;nan;99734.94;5044083;28;19987;-73
2022/05/24 12:08:26;;;;;;;;;;;;;;;34.91;nan;99757.63;5052124;28;19974;-73
2022/05/24 12:11:04;;;;;;;;;;;;;;;35.19;nan;99749.69;5047535;28;19924;-73
2022/05/24 12:13:34;;;;;;;;;;;;;;;35.87;nan;99757.63;5050072;28;20421;-73
2022/05/24 12:16:07;;;;;;;;;;;;;;;33.76;nan;99761.16;5046407;28;19925;-73
2022/05/24 12:18:55;;;;;;;;;;;;;;;31.70;nan;99752.53;5048987;28;20404;-73
2022/05/24 12:21:39;;;;;;;;;;;;;;;29.83;nan;99762.38;5043612;28;19928;-74
2022/05/24 12:24:31;;;;;;;;;;;;;;;29.77;nan;99756.22;5047531;28;20278;-73
2022/05/24 12:27:14;;;;;;;;;;;;;;;29.70;nan;99761.25;5051447;28;20301;-73
2022/05/24 12:29:41;;;;;;;;;;;;;;;28.85;nan;99756.72;5050286;28;19986;-73
2022/05/24 12:32:06;;;;;;;;;;;;;;;28.28;nan;99751.91;5047217;28;19937;-73
2022/05/24 12:34:32;;;;;;;;;;;;;;;28.28;nan;99756.56;5047559;28;20320;-73
2022/05/24 12:36:58;;;;;;;;;;;;;;;27.71;nan;99758.97;5051804;28;19920;-73
2022/05/24 12:39:25;;;;;;;;;;;;;;;27.24;nan;99757.66;5056597;28;19920;-73
2022/05/24 12:41:50;;;;;;;;;;;;;;;27.02;nan;99760.75;5065598;28;19925;-73
2022/05/24 12:44:17;;;;;;;;;;;;;;;27.23;nan;99762.28;5063684;28;20297;-73
2022/05/24 12:46:45;;;;;;;;;;;;;;;27.33;nan;99750.56;5066725;28;19921;-73
2022/05/24 12:49:15;;;;;;;;;;;;;;;27.42;nan;99750.78;5056937;28;19955;-73
2022/05/24 12:51:41;;;;;;;;;;;;;;;27.68;nan;99757.63;5060858;28;19921;-73
2022/05/24 12:54:10;;;;;;;;;;;;;;;27.68;nan;99749.47;5063514;28;20298;-73
2022/05/24 12:56:36;;;;;;;;;;;;;;;27.40;nan;99761.91;5060488;28;19944;-73
2022/05/24 12:59:09;;;;;;;;;;;;;;;27.11;nan;99759.06;5061933;28;20009;-73
2022/05/24 13:01:39;;;;;;;;;;;;;;;26.85;nan;99753.78;5054230;28;19943;-73
2022/05/24 13:04:06;;;;;;;;;;;;;;;26.48;nan;99744.16;5065727;28;19917;-73
2022/05/24 13:06:32;;;;;;;;;;;;;;;26.16;nan;99758.03;5059346;28;20015;-73
2022/05/24 13:09:26;;;;;;;;;;;;;;;25.62;nan;99756.72;5070339;28;19920;-73
2022/05/24 13:11:53;;;;;;;;;;;;;;;25.50;nan;99750.72;5044578;28;19920;-72
2022/05/24 13:14:29;;;;;;;;;;;;;;;25.34;nan;99762.66;5057529;28;20329;-72
2022/05/24 13:16:54;;;;;;;;;;;;;;;25.13;nan;99764.47;5049007;28;19968;-72
2022/05/24 13:19:20;;;;;;;;;;;;;;;24.72;nan;99761.63;5048108;28;20013;-72
2022/05/24 13:21:51;;;;;;;;;;;;;;;24.44;nan;99755.50;5050335;28;20256;-72
2022/05/24 13:24:16;;;;;;;;;;;;;;;24.45;nan;99762.53;5054253;28;20089;-72
2022/05/24 13:27:01;;;;;;;;;;;;;;;24.45;nan;99762.53;5065868;28;19919;-72
2022/05/24 13:29:29;;;;;;;;;;;;;;;24.17;nan;99761.84;5047849;28;19983;-73
2022/05/24 13:34:42;;;;;;;;;;;;;;;24.13;nan;99768.00;5045822;28;19928;-72
2022/05/24 13:37:11;;;;;;;;;;;;;;;24.22;nan;99758.34;5046922;28;19925;-72
2022/05/24 13:39:39;;;;;;;;;;;;;;;24.59;nan;99766.41;5054092;28;20285;-72
2022/05/24 13:42:07;;;;;;;;;;;;;;;24.73;nan;99761.34;5070486;28;19917;-72
2022/05/24 13:44:32;;;;;;;;;;;;;;;24.50;nan;99770.72;5070428;28;19947;-72
2022/05/24 13:47:03;;;;;;;;;;;;;;;24.51;nan;99766.91;5058019;28;19948;-72
2022/05/24 13:49:28;;;;;;;;;;;;;;;24.60;nan;99764.53;5066730;28;19916;-72
2022/05/24 13:51:53;;;;;;;;;;;;;;;24.67;nan;99764.28;5070191;28;19916;-72
2022/05/24 13:54:33;;;;;;;;;;;;;;;25.04;nan;99777.69;5070369;28;19959;-72
2022/05/24 13:57:00;;;;;;;;;;;;;;;25.11;nan;99772.81;5070438;28;19948;-72